EDLV/NRN METAR and TAF weather

Enter ICAO airport designator
Station Type Date Time Source
EDLV METAR 2021/08/02 02:50 UTC NOAA

EDLV 020250Z 22002KT CAVOK 12/12 Q1013


Station Type Date Time Source
EDLV Decoded METAR 2021/08/02 02:50 UTC NOAA

Niederrhein, Germany (EDLV) 51-36-09N 006-08-32E
Aug 01, 2021 - 10:50 PM EDT / 2021.08.02 0250 UTC
Wind: from the SW (220 degrees) at 2 MPH (2 KT):0
Visibility: greater than 7 mile(s):0
Temperature: 53 F (12 C)
Dew Point: 53 F (12 C)
Relative Humidity: 100%
Pressure (altimeter): 29.91 in. Hg (1013 hPa)
ob: EDLV 020250Z 22002KT CAVOK 12/12 Q1013
cycle: 3

Station Type Date Time Source
EDLV TAF 2021/08/01 22:54 UTC NOAA

TAF
AMD TAF
AMD EDLV 012251Z 0122/0218 CNL

Example: see airport list